createdAt,value
2023-04-29T00:00:15.854Z,6.72
2023-04-29T00:05:18.847Z,6.68
2023-04-29T00:10:23.012Z,6.55
2023-04-29T00:15:25.580Z,6.65
2023-04-29T00:20:28.493Z,5.95
2023-04-29T00:25:32.552Z,5.93
2023-04-29T00:30:35.520Z,6.13
2023-04-29T00:35:38.164Z,5.57
2023-04-29T00:40:43.622Z,5.38
2023-04-29T00:45:46.977Z,4.90
2023-04-29T00:50:50.741Z,4.50
2023-04-29T00:55:54.819Z,4.55
2023-04-29T01:00:57.883Z,4.75
2023-04-29T01:06:04.873Z,4.68
2023-04-29T01:11:09.786Z,4.07
2023-04-29T01:16:14.302Z,3.88
2023-04-29T01:21:17.115Z,4.28
2023-04-29T01:26:21.050Z,4.43
2023-04-29T01:31:50.208Z,4.35
2023-04-29T01:37:00.841Z,4.00
2023-04-29T01:42:12.430Z,3.70
2023-04-29T01:47:15.604Z,3.95
2023-04-29T01:52:22.899Z,3.92
2023-04-29T01:57:31.826Z,3.38
2023-04-29T02:02:44.818Z,3.25
2023-04-29T02:07:59.842Z,3.97
2023-04-29T02:13:04.245Z,4.32
2023-04-29T02:18:07.276Z,4.60
2023-04-29T02:23:09.991Z,5.28
2023-04-29T02:28:14.035Z,5.13
2023-04-29T02:33:18.282Z,5.88
2023-04-29T02:38:20.997Z,6.13
2023-04-29T02:43:24.978Z,6.18
2023-04-29T02:48:27.506Z,6.43
2023-04-29T02:53:30.048Z,7.07
2023-04-29T02:58:34.021Z,7.43
2023-04-29T03:03:36.676Z,7.93
2023-04-29T03:08:39.346Z,7.65
2023-04-29T03:13:43.270Z,7.82
2023-04-29T03:18:46.129Z,7.88
2023-04-29T03:23:48.752Z,8.32
2023-04-29T03:28:58.605Z,8.20
2023-04-29T03:34:02.294Z,8.80
2023-04-29T03:39:08.013Z,8.93
2023-04-29T03:44:12.007Z,8.43
2023-04-29T03:49:15.976Z,8.57
2023-04-29T03:54:18.999Z,8.20
2023-04-29T03:59:24.055Z,8.80
2023-04-29T04:04:28.005Z,8.68
2023-04-29T04:09:30.633Z,8.02
2023-04-29T04:14:34.672Z,8.93
2023-04-29T04:19:37.395Z,8.68
2023-04-29T04:24:40.225Z,8.00
2023-04-29T04:29:44.221Z,7.80
2023-04-29T04:34:51.670Z,8.15
2023-04-29T04:39:54.635Z,8.30
2023-04-29T04:44:58.920Z,8.13
2023-04-29T04:50:28.626Z,8.43
2023-04-29T04:55:31.706Z,8.52
2023-04-29T05:00:35.953Z,8.45
2023-04-29T05:05:39.674Z,9.60
2023-04-29T05:10:43.987Z,9.50
2023-04-29T05:15:49.446Z,8.52
2023-04-29T05:20:56.903Z,8.15
2023-04-29T05:25:59.919Z,8.30
2023-04-29T05:31:04.091Z,8.80
2023-04-29T05:36:07.795Z,9.38
2023-04-29T05:41:10.663Z,9.10
2023-04-29T05:46:44.952Z,9.02
2023-04-29T05:51:47.822Z,9.57
2023-04-29T05:56:50.389Z,10.85
2023-04-29T06:01:54.563Z,11.15
2023-04-29T06:06:58.170Z,11.35
2023-04-29T06:12:19.119Z,10.82
2023-04-29T06:17:24.388Z,10.70
2023-04-29T06:22:27.874Z,10.30
2023-04-29T06:27:31.817Z,9.93
2023-04-29T06:32:35.939Z,10.85
2023-04-29T06:37:38.612Z,10.38
2023-04-29T06:42:50.385Z,9.75
2023-04-29T06:48:11.216Z,9.32
2023-04-29T06:53:24.635Z,9.70
2023-04-29T06:58:27.235Z,8.05
2023-04-29T07:03:31.226Z,7.38
2023-04-29T07:08:34.276Z,7.10
2023-04-29T07:13:36.767Z,6.70
2023-04-29T07:18:40.684Z,6.05
2023-04-29T07:23:43.255Z,5.82
2023-04-29T07:28:46.288Z,6.28
2023-04-29T07:33:50.201Z,5.55
2023-04-29T07:38:53.023Z,7.15
2023-04-29T07:43:56.150Z,5.22
2023-04-29T07:49:00.420Z,5.43
2023-04-29T07:54:03.033Z,5.82
2023-04-29T07:59:05.860Z,5.47
2023-04-29T08:04:10.437Z,5.32
2023-04-29T08:09:23.166Z,5.85
2023-04-29T08:14:25.914Z,5.70
2023-04-29T08:19:32.206Z,6.05
2023-04-29T08:24:35.216Z,7.50
2023-04-29T08:29:37.957Z,6.28
2023-04-29T08:34:41.949Z,6.85
2023-04-29T08:39:46.814Z,6.90
2023-04-29T08:44:50.318Z,8.10
2023-04-29T08:49:54.735Z,8.35
2023-04-29T08:54:57.695Z,8.90
2023-04-29T09:00:00.927Z,9.02
2023-04-29T09:05:08.966Z,8.27
2023-04-29T09:10:12.356Z,7.78
2023-04-29T09:15:14.992Z,7.82
2023-04-29T09:20:28.904Z,6.43
2023-04-29T09:25:31.786Z,7.25
2023-04-29T09:30:46.709Z,6.45
2023-04-29T09:35:51.190Z,6.93
2023-04-29T09:40:59.509Z,7.10
2023-04-29T09:46:03.872Z,6.25
2023-04-29T09:51:07.890Z,6.90
2023-04-29T09:56:10.410Z,7.35
2023-04-29T10:01:14.225Z,7.63
2023-04-29T10:06:19.121Z,6.93
2023-04-29T10:11:21.705Z,6.05
2023-04-29T10:16:28.877Z,5.95
2023-04-29T10:21:32.897Z,6.13
2023-04-29T10:26:37.106Z,5.00
2023-04-29T10:31:40.993Z,5.22
2023-04-29T10:36:45.701Z,6.10
2023-04-29T10:41:48.350Z,6.15
2023-04-29T10:46:50.880Z,5.88
2023-04-29T10:52:04.884Z,4.90
2023-04-29T10:57:07.500Z,4.63
2023-04-29T11:02:11.162Z,5.13
2023-04-29T11:07:27.623Z,6.13
2023-04-29T11:12:30.374Z,6.40
2023-04-29T11:17:36.301Z,5.43
2023-04-29T11:22:40.239Z,6.72
2023-04-29T11:27:43.321Z,7.70
2023-04-29T11:32:46.111Z,7.80
2023-04-29T11:37:50.184Z,10.02
2023-04-29T11:42:52.838Z,10.73
2023-04-29T11:47:56.034Z,11.40
2023-04-29T11:53:00.126Z,11.85
2023-04-29T11:58:02.748Z,12.52
2023-04-29T12:03:08.965Z,11.00
2023-04-29T12:08:13.235Z,11.23
2023-04-29T12:13:16.112Z,11.05
2023-04-29T12:18:19.385Z,11.30
2023-04-29T12:23:24.003Z,12.27
2023-04-29T12:28:27.339Z,11.23
2023-04-29T12:33:30.752Z,11.95
2023-04-29T12:38:34.866Z,11.18
2023-04-29T12:43:38.235Z,11.63
2023-04-29T12:48:43.478Z,10.70
2023-04-29T12:53:47.468Z,10.10
2023-04-29T12:58:50.194Z,10.05
2023-04-29T13:03:53.122Z,9.45
2023-04-29T13:08:57.435Z,9.40
2023-04-29T13:14:00.107Z,9.48
2023-04-29T13:19:17.009Z,8.77
2023-04-29T13:24:27.203Z,7.10
2023-04-29T13:29:29.798Z,7.72
2023-04-29T13:34:32.314Z,6.95
2023-04-29T13:39:38.437Z,6.63
2023-04-29T13:55:38.278Z,6.50
2023-04-29T14:00:45.266Z,6.63
2023-04-29T14:05:42.131Z,7.10
2023-04-29T14:10:46.341Z,6.75
2023-04-29T14:15:49.187Z,7.20
2023-04-29T14:20:51.922Z,7.25
2023-04-29T14:26:06.211Z,6.70
2023-04-29T14:31:18.607Z,6.93
2023-04-29T14:36:21.649Z,7.25
2023-04-29T14:41:25.674Z,7.13
2023-04-29T14:46:29.486Z,7.03
2023-04-29T14:51:32.368Z,6.97
2023-04-29T14:56:37.781Z,7.50
2023-04-29T15:01:40.886Z,6.68
2023-04-29T15:06:43.559Z,6.35
2023-04-29T15:11:47.467Z,6.30
2023-04-29T15:16:50.101Z,6.78
2023-04-29T15:21:53.206Z,5.63
2023-04-29T15:26:57.256Z,6.05
2023-04-29T15:31:59.942Z,5.85
2023-04-29T15:37:02.581Z,6.05
2023-04-29T15:42:06.784Z,6.60
2023-04-29T15:47:09.323Z,6.13
2023-04-29T15:52:12.031Z,6.65
2023-04-29T15:57:15.941Z,6.03
2023-04-29T16:02:20.305Z,5.85
2023-04-29T16:07:23.128Z,5.30
2023-04-29T16:12:27.146Z,5.40
2023-04-29T16:17:29.713Z,5.20
2023-04-29T16:22:32.560Z,6.32
2023-04-29T16:27:36.646Z,5.70
2023-04-29T16:32:41.616Z,5.47
2023-04-29T16:37:44.382Z,5.22
2023-04-29T16:42:48.364Z,5.78
2023-04-29T16:47:51.118Z,5.53
2023-04-29T16:52:53.750Z,5.57
2023-04-29T16:57:57.755Z,7.82
2023-04-29T17:03:00.799Z,5.70
2023-04-29T17:08:04.196Z,5.85
2023-04-29T17:13:08.110Z,5.38
2023-04-29T17:18:10.735Z,5.18
2023-04-29T17:23:13.896Z,5.07
2023-04-29T17:28:17.840Z,4.90
2023-04-29T17:33:20.447Z,5.63
2023-04-29T17:38:23.012Z,5.25
2023-04-29T17:43:27.323Z,4.70
2023-04-29T17:48:29.998Z,4.95
2023-04-29T17:53:33.358Z,4.68
2023-04-29T17:58:37.339Z,5.35
2023-04-29T18:03:39.937Z,5.07
2023-04-29T18:08:42.504Z,6.05
2023-04-29T18:13:46.488Z,8.65
2023-04-29T18:18:51.322Z,5.57
2023-04-29T18:23:54.205Z,5.32
2023-04-29T18:28:58.204Z,5.78
2023-04-29T18:34:00.802Z,5.85
2023-04-29T18:39:03.473Z,5.00
2023-04-29T18:44:07.332Z,6.28
2023-04-29T18:49:15.822Z,6.03
2023-04-29T18:54:18.955Z,6.57
2023-04-29T18:59:22.903Z,6.07
2023-04-29T19:04:25.556Z,6.93
2023-04-29T19:09:28.232Z,7.10
2023-04-29T19:14:33.774Z,6.82
2023-04-29T19:19:37.656Z,7.22
2023-04-29T19:24:42.039Z,6.32
2023-04-29T19:29:44.609Z,6.10
2023-04-29T19:34:48.946Z,7.10
2023-04-29T19:39:52.308Z,7.40
2023-04-29T19:44:55.269Z,7.28
2023-04-29T19:49:59.409Z,7.35
2023-04-29T19:55:02.094Z,7.47
2023-04-29T20:00:05.957Z,9.90
2023-04-29T20:05:11.438Z,8.55
2023-04-29T20:10:14.023Z,8.25
2023-04-29T20:15:16.528Z,8.35
2023-04-29T20:20:20.426Z,7.53
2023-04-29T20:25:24.170Z,7.55
2023-04-29T20:30:26.996Z,8.07
2023-04-29T20:35:30.951Z,6.70
2023-04-29T20:40:34.487Z,7.20
2023-04-29T20:45:37.447Z,6.70
2023-04-29T20:50:41.764Z,6.95
2023-04-29T20:55:44.336Z,6.40
2023-04-29T21:00:46.933Z,6.38
2023-04-29T21:05:55.177Z,5.88
2023-04-29T21:10:57.854Z,6.85
2023-04-29T21:16:00.463Z,6.82
2023-04-29T21:21:04.428Z,6.95
2023-04-29T21:26:07.092Z,6.50
2023-04-29T21:31:15.349Z,6.15
2023-04-29T21:36:19.377Z,5.90
2023-04-29T21:41:24.987Z,6.35
2023-04-29T21:46:28.137Z,5.75
2023-04-29T21:51:32.657Z,6.13
2023-04-29T21:56:35.571Z,5.72
2023-04-29T22:01:48.478Z,5.63
2023-04-29T22:06:52.686Z,5.85
2023-04-29T22:11:55.239Z,5.80
2023-04-29T22:16:57.877Z,5.60
2023-04-29T22:22:01.822Z,5.72
2023-04-29T22:27:04.406Z,6.05
2023-04-29T22:32:07.166Z,5.50
2023-04-29T22:37:11.068Z,6.18
2023-04-29T22:42:13.608Z,5.88
2023-04-29T22:47:16.802Z,5.25
2023-04-29T22:52:20.705Z,5.82
2023-04-29T22:57:23.450Z,5.97
2023-04-29T23:02:29.211Z,5.45
2023-04-29T23:07:33.598Z,5.57
2023-04-29T23:12:36.204Z,5.35
2023-04-29T23:17:39.725Z,4.95
2023-04-29T23:22:43.688Z,5.38
2023-04-29T23:27:46.245Z,4.88
2023-04-29T23:32:48.852Z,4.40
2023-04-29T23:37:52.720Z,4.50
2023-04-29T23:42:55.279Z,4.25
2023-04-29T23:47:57.925Z,3.53
2023-04-29T23:53:01.818Z,3.88
2023-04-29T23:58:05.497Z,3.40
